Duke Field AFS, FL

4:19 AM CDT on September 05, 2015 (GMT -0500)
John King 2nd edition | | Change Station
CLOSE
Current Station
Personal Weather Station
Location: Crestview, FL
Elevation: 138 ft
Nearby Weather Stations

Elev 138 ft 30.72 °N, 86.55 °W | Updated 7 minutes ago

Clear
Clear
72.7 °F
Feels Like 72.7 °F
N
0.0
Wind Variable Wind from NE

Today
High -- | Low -- °F
--% Chance of Precip.
Yesterday
High -- | Low -- °F
Precip. -- in
6:24 AM 7:04 PM
Waning Gibbous, 50% visible
Pressure 29.97 in
Visibility 10.0 miles
Clouds Clear
Dew Point 72 °F
Humidity 99%
Rainfall 0.00 in
Snow Depth Not available.
UV 0 out of 12
Pollen 7.90 out of 12
Air Quality Not available.
Flu Activity Not available.
METAR KCEW 050853Z AUTO 00000KT 10SM CLR 24/23 A2998 RMK AO2 SLP148 T02440233 55002
Pressure 29.97 in
Visibility 10.0 miles
Clouds Clear
Dew Point 72 °F
Humidity 99%
Rainfall 0.00 in
Snow Depth Not available.
UV 0 out of 12
Pollen 7.90 out of 12
Air Quality Not available.
Flu Activity Not available.
METAR KCEW 050853Z AUTO 00000KT 10SM CLR 24/23 A2998 RMK AO2 SLP148 T02440233 55002

10-Day Weather Forecast

×

Almanac

Astronomy

Sep. 05, 2015 Rise Set
Actual Time
Civil Twilight
Nautical Twilight
Astronomical Twilight
Moon
Length of Visible Light
Length of Day
Tomorrow will be .
, % of the Moon is Illuminated

Today's Extremes

State Highs State Lows

Community

WunderPhotos

Upload Photos

1,852,440 photos uploaded!

WunderBlogs® & News

Nearby

Air Quality

  Air Quality AQ Index Pollutant
Not available.

Snow Depth

Station Depth Elevation

Earthquake Activity

City Distance Mag. Time & Date
Minimum magnitude displayed is 2.5.

Coastal Water Temperatures

Place Temperature

Stations

Nearby Weather Stations

Station Location Temp. Windchill Dew Point Humidity Wind Precip. Elev Updated Type